sensor_id;sensor_type;location;lat;lon;timestamp;P1;durP1;ratioP1;P2;durP2;ratioP2
5414;SDS011;2730;51.512;7.504;2023-02-19T00:01:25;20.90;;;9.20;;
5414;SDS011;2730;51.512;7.504;2023-02-19T00:03:54;21.90;;;11.05;;
5414;SDS011;2730;51.512;7.504;2023-02-19T00:06:23;21.90;;;10.25;;
5414;SDS011;2730;51.512;7.504;2023-02-19T00:08:51;22.10;;;10.20;;
5414;SDS011;2730;51.512;7.504;2023-02-19T00:11:19;18.05;;;10.40;;
5414;SDS011;2730;51.512;7.504;2023-02-19T00:13:49;27.83;;;12.85;;
5414;SDS011;2730;51.512;7.504;2023-02-19T00:16:20;28.75;;;13.70;;
5414;SDS011;2730;51.512;7.504;2023-02-19T00:18:48;27.02;;;12.82;;
5414;SDS011;2730;51.512;7.504;2023-02-19T00:21:16;32.05;;;14.85;;
5414;SDS011;2730;51.512;7.504;2023-02-19T00:23:43;35.47;;;15.32;;
5414;SDS011;2730;51.512;7.504;2023-02-19T00:26:14;35.05;;;16.00;;
5414;SDS011;2730;51.512;7.504;2023-02-19T00:28:40;34.25;;;14.82;;
5414;SDS011;2730;51.512;7.504;2023-02-19T00:31:09;33.40;;;16.45;;
5414;SDS011;2730;51.512;7.504;2023-02-19T00:33:41;38.13;;;15.35;;
5414;SDS011;2730;51.512;7.504;2023-02-19T00:36:07;38.60;;;17.23;;
5414;SDS011;2730;51.512;7.504;2023-02-19T00:38:35;41.22;;;18.33;;
5414;SDS011;2730;51.512;7.504;2023-02-19T00:41:03;35.95;;;16.95;;
5414;SDS011;2730;51.512;7.504;2023-02-19T00:43:43;39.80;;;18.27;;
5414;SDS011;2730;51.512;7.504;2023-02-19T00:46:11;34.97;;;16.90;;
5414;SDS011;2730;51.512;7.504;2023-02-19T00:48:38;38.67;;;17.92;;
5414;SDS011;2730;51.512;7.504;2023-02-19T00:51:05;42.15;;;18.80;;
5414;SDS011;2730;51.512;7.504;2023-02-19T00:53:32;40.25;;;17.52;;
5414;SDS011;2730;51.512;7.504;2023-02-19T00:55:58;38.45;;;18.42;;
5414;SDS011;2730;51.512;7.504;2023-02-19T00:58:25;37.97;;;18.23;;
5414;SDS011;2730;51.512;7.504;2023-02-19T01:00:52;40.92;;;18.98;;
5414;SDS011;2730;51.512;7.504;2023-02-19T01:03:20;40.85;;;19.73;;
5414;SDS011;2730;51.512;7.504;2023-02-19T01:05:47;43.17;;;20.10;;
5414;SDS011;2730;51.512;7.504;2023-02-19T01:08:14;42.42;;;19.60;;
5414;SDS011;2730;51.512;7.504;2023-02-19T01:10:41;47.22;;;20.30;;
5414;SDS011;2730;51.512;7.504;2023-02-19T01:13:08;51.45;;;20.95;;
5414;SDS011;2730;51.512;7.504;2023-02-19T01:15:35;39.13;;;19.15;;
5414;SDS011;2730;51.512;7.504;2023-02-19T01:18:03;33.38;;;16.27;;
5414;SDS011;2730;51.512;7.504;2023-02-19T01:20:31;38.03;;;17.70;;
5414;SDS011;2730;51.512;7.504;2023-02-19T01:22:58;38.58;;;17.00;;
5414;SDS011;2730;51.512;7.504;2023-02-19T01:25:24;39.28;;;17.80;;
5414;SDS011;2730;51.512;7.504;2023-02-19T01:27:51;30.63;;;15.10;;
5414;SDS011;2730;51.512;7.504;2023-02-19T01:30:18;28.60;;;13.70;;
5414;SDS011;2730;51.512;7.504;2023-02-19T01:32:45;35.28;;;14.88;;
5414;SDS011;2730;51.512;7.504;2023-02-19T01:35:11;26.63;;;12.73;;
5414;SDS011;2730;51.512;7.504;2023-02-19T01:37:40;27.80;;;13.18;;
5414;SDS011;2730;51.512;7.504;2023-02-19T01:40:07;28.67;;;14.93;;
5414;SDS011;2730;51.512;7.504;2023-02-19T01:42:34;28.00;;;12.30;;
5414;SDS011;2730;51.512;7.504;2023-02-19T01:45:14;35.00;;;14.43;;
5414;SDS011;2730;51.512;7.504;2023-02-19T01:47:50;27.70;;;13.95;;
5414;SDS011;2730;51.512;7.504;2023-02-19T01:50:23;35.50;;;15.20;;
5414;SDS011;2730;51.512;7.504;2023-02-19T01:52:54;31.33;;;15.57;;
5414;SDS011;2730;51.512;7.504;2023-02-19T01:55:21;35.80;;;14.05;;
5414;SDS011;2730;51.512;7.504;2023-02-19T01:57:50;34.88;;;16.00;;
5414;SDS011;2730;51.512;7.504;2023-02-19T02:00:20;37.03;;;16.05;;
5414;SDS011;2730;51.512;7.504;2023-02-19T02:02:49;40.13;;;17.42;;
5414;SDS011;2730;51.512;7.504;2023-02-19T02:05:22;33.97;;;15.82;;
5414;SDS011;2730;51.512;7.504;2023-02-19T02:07:59;44.40;;;17.40;;
5414;SDS011;2730;51.512;7.504;2023-02-19T02:10:45;37.78;;;17.25;;
5414;SDS011;2730;51.512;7.504;2023-02-19T02:13:12;36.80;;;17.48;;
5414;SDS011;2730;51.512;7.504;2023-02-19T02:15:42;41.88;;;18.42;;
5414;SDS011;2730;51.512;7.504;2023-02-19T02:18:16;39.42;;;17.25;;
5414;SDS011;2730;51.512;7.504;2023-02-19T02:20:57;44.58;;;18.00;;
5414;SDS011;2730;51.512;7.504;2023-02-19T02:23:43;43.13;;;18.48;;
5414;SDS011;2730;51.512;7.504;2023-02-19T02:26:30;43.97;;;18.52;;
5414;SDS011;2730;51.512;7.504;2023-02-19T02:29:18;46.72;;;17.77;;
5414;SDS011;2730;51.512;7.504;2023-02-19T02:31:58;41.78;;;15.90;;
5414;SDS011;2730;51.512;7.504;2023-02-19T02:34:32;49.55;;;18.55;;
5414;SDS011;2730;51.512;7.504;2023-02-19T02:37:04;43.20;;;17.15;;
5414;SDS011;2730;51.512;7.504;2023-02-19T02:39:32;42.17;;;18.80;;
5414;SDS011;2730;51.512;7.504;2023-02-19T02:42:01;39.58;;;17.23;;
5414;SDS011;2730;51.512;7.504;2023-02-19T02:44:48;47.75;;;19.00;;
5414;SDS011;2730;51.512;7.504;2023-02-19T02:47:30;53.03;;;22.52;;
5414;SDS011;2730;51.512;7.504;2023-02-19T02:50:09;52.80;;;21.90;;
5414;SDS011;2730;51.512;7.504;2023-02-19T02:52:44;48.97;;;19.48;;
5414;SDS011;2730;51.512;7.504;2023-02-19T02:55:33;40.20;;;19.15;;
5414;SDS011;2730;51.512;7.504;2023-02-19T02:58:02;47.55;;;19.52;;
5414;SDS011;2730;51.512;7.504;2023-02-19T03:00:30;49.60;;;20.00;;
5414;SDS011;2730;51.512;7.504;2023-02-19T03:03:19;43.85;;;19.52;;
5414;SDS011;2730;51.512;7.504;2023-02-19T03:05:49;48.22;;;19.98;;
5414;SDS011;2730;51.512;7.504;2023-02-19T03:08:20;48.50;;;20.67;;
5414;SDS011;2730;51.512;7.504;2023-02-19T03:10:52;42.25;;;18.67;;
5414;SDS011;2730;51.512;7.504;2023-02-19T03:13:24;40.55;;;18.05;;
5414;SDS011;2730;51.512;7.504;2023-02-19T03:16:11;37.60;;;16.75;;
5414;SDS011;2730;51.512;7.504;2023-02-19T03:19:00;45.78;;;18.65;;
5414;SDS011;2730;51.512;7.504;2023-02-19T03:21:44;45.15;;;20.30;;
5414;SDS011;2730;51.512;7.504;2023-02-19T03:24:14;47.25;;;19.17;;
5414;SDS011;2730;51.512;7.504;2023-02-19T03:27:02;44.53;;;20.17;;
5414;SDS011;2730;51.512;7.504;2023-02-19T03:29:30;46.80;;;20.85;;
5414;SDS011;2730;51.512;7.504;2023-02-19T03:32:00;50.88;;;21.15;;
5414;SDS011;2730;51.512;7.504;2023-02-19T03:34:33;58.63;;;20.77;;
5414;SDS011;2730;51.512;7.504;2023-02-19T03:37:02;53.28;;;21.10;;
5414;SDS011;2730;51.512;7.504;2023-02-19T03:39:35;55.00;;;21.52;;
5414;SDS011;2730;51.512;7.504;2023-02-19T03:42:10;46.83;;;20.33;;
5414;SDS011;2730;51.512;7.504;2023-02-19T03:44:43;48.78;;;21.58;;
5414;SDS011;2730;51.512;7.504;2023-02-19T03:47:19;44.90;;;19.40;;
5414;SDS011;2730;51.512;7.504;2023-02-19T03:49:53;51.95;;;19.30;;
5414;SDS011;2730;51.512;7.504;2023-02-19T03:52:26;54.00;;;20.08;;
5414;SDS011;2730;51.512;7.504;2023-02-19T03:55:02;37.80;;;17.50;;
5414;SDS011;2730;51.512;7.504;2023-02-19T03:57:35;43.90;;;16.92;;
5414;SDS011;2730;51.512;7.504;2023-02-19T04:00:20;40.33;;;17.10;;
5414;SDS011;2730;51.512;7.504;2023-02-19T04:02:52;53.35;;;17.70;;
5414;SDS011;2730;51.512;7.504;2023-02-19T04:05:25;43.65;;;18.60;;
5414;SDS011;2730;51.512;7.504;2023-02-19T04:07:56;38.28;;;17.38;;
5414;SDS011;2730;51.512;7.504;2023-02-19T04:10:25;42.75;;;17.65;;
5414;SDS011;2730;51.512;7.504;2023-02-19T04:12:54;50.38;;;18.65;;
5414;SDS011;2730;51.512;7.504;2023-02-19T04:15:25;39.20;;;16.30;;
5414;SDS011;2730;51.512;7.504;2023-02-19T04:17:56;41.05;;;17.27;;
5414;SDS011;2730;51.512;7.504;2023-02-19T04:20:27;37.33;;;16.02;;
5414;SDS011;2730;51.512;7.504;2023-02-19T04:22:57;35.15;;;14.27;;
5414;SDS011;2730;51.512;7.504;2023-02-19T04:25:24;41.05;;;14.68;;
5414;SDS011;2730;51.512;7.504;2023-02-19T04:27:52;31.52;;;14.25;;
5414;SDS011;2730;51.512;7.504;2023-02-19T04:30:19;29.63;;;14.18;;
5414;SDS011;2730;51.512;7.504;2023-02-19T04:32:47;34.58;;;11.48;;
5414;SDS011;2730;51.512;7.504;2023-02-19T04:35:14;27.08;;;12.43;;
5414;SDS011;2730;51.512;7.504;2023-02-19T04:37:42;37.80;;;13.35;;
5414;SDS011;2730;51.512;7.504;2023-02-19T04:40:09;25.33;;;13.45;;
5414;SDS011;2730;51.512;7.504;2023-02-19T04:42:36;25.50;;;13.30;;
5414;SDS011;2730;51.512;7.504;2023-02-19T04:45:03;29.55;;;14.23;;
5414;SDS011;2730;51.512;7.504;2023-02-19T04:47:30;35.30;;;14.13;;
5414;SDS011;2730;51.512;7.504;2023-02-19T04:49:57;33.40;;;13.90;;
5414;SDS011;2730;51.512;7.504;2023-02-19T04:52:24;29.42;;;13.95;;
5414;SDS011;2730;51.512;7.504;2023-02-19T04:54:52;43.85;;;14.10;;
5414;SDS011;2730;51.512;7.504;2023-02-19T04:57:19;22.42;;;12.02;;
5414;SDS011;2730;51.512;7.504;2023-02-19T04:59:46;25.75;;;14.25;;
5414;SDS011;2730;51.512;7.504;2023-02-19T05:02:12;28.23;;;14.18;;
5414;SDS011;2730;51.512;7.504;2023-02-19T05:04:39;28.10;;;13.27;;
5414;SDS011;2730;51.512;7.504;2023-02-19T05:07:06;22.30;;;12.85;;
5414;SDS011;2730;51.512;7.504;2023-02-19T05:09:33;28.52;;;14.10;;
5414;SDS011;2730;51.512;7.504;2023-02-19T05:12:01;27.15;;;13.10;;
5414;SDS011;2730;51.512;7.504;2023-02-19T05:14:28;30.85;;;13.32;;
5414;SDS011;2730;51.512;7.504;2023-02-19T05:16:55;32.42;;;15.05;;
5414;SDS011;2730;51.512;7.504;2023-02-19T05:19:22;32.60;;;15.35;;
5414;SDS011;2730;51.512;7.504;2023-02-19T05:21:49;29.15;;;13.73;;
5414;SDS011;2730;51.512;7.504;2023-02-19T05:24:15;37.17;;;14.82;;
5414;SDS011;2730;51.512;7.504;2023-02-19T05:26:42;30.02;;;14.40;;
5414;SDS011;2730;51.512;7.504;2023-02-19T05:29:10;27.60;;;14.48;;
5414;SDS011;2730;51.512;7.504;2023-02-19T05:31:37;28.60;;;13.10;;
5414;SDS011;2730;51.512;7.504;2023-02-19T05:34:04;39.40;;;14.77;;
5414;SDS011;2730;51.512;7.504;2023-02-19T05:36:31;29.73;;;13.82;;
5414;SDS011;2730;51.512;7.504;2023-02-19T05:38:58;32.35;;;14.25;;
5414;SDS011;2730;51.512;7.504;2023-02-19T05:41:25;34.08;;;14.10;;
5414;SDS011;2730;51.512;7.504;2023-02-19T05:43:53;32.53;;;15.20;;
5414;SDS011;2730;51.512;7.504;2023-02-19T05:46:22;37.50;;;17.52;;
5414;SDS011;2730;51.512;7.504;2023-02-19T05:48:50;35.15;;;15.93;;
5414;SDS011;2730;51.512;7.504;2023-02-19T05:51:20;29.35;;;14.50;;
5414;SDS011;2730;51.512;7.504;2023-02-19T05:53:48;28.15;;;14.13;;
5414;SDS011;2730;51.512;7.504;2023-02-19T05:56:22;34.45;;;16.05;;
5414;SDS011;2730;51.512;7.504;2023-02-19T05:58:53;31.25;;;15.23;;
5414;SDS011;2730;51.512;7.504;2023-02-19T06:01:23;25.90;;;13.63;;
5414;SDS011;2730;51.512;7.504;2023-02-19T06:03:51;25.10;;;14.15;;
5414;SDS011;2730;51.512;7.504;2023-02-19T06:06:18;31.83;;;15.23;;
5414;SDS011;2730;51.512;7.504;2023-02-19T06:08:46;28.20;;;14.75;;
5414;SDS011;2730;51.512;7.504;2023-02-19T06:11:14;41.47;;;15.32;;
5414;SDS011;2730;51.512;7.504;2023-02-19T06:13:41;30.55;;;15.23;;
5414;SDS011;2730;51.512;7.504;2023-02-19T06:16:08;30.00;;;16.23;;
5414;SDS011;2730;51.512;7.504;2023-02-19T06:18:36;34.35;;;17.70;;
5414;SDS011;2730;51.512;7.504;2023-02-19T06:21:06;32.08;;;15.65;;
5414;SDS011;2730;51.512;7.504;2023-02-19T06:23:35;26.52;;;13.38;;
5414;SDS011;2730;51.512;7.504;2023-02-19T06:26:09;27.48;;;14.40;;
5414;SDS011;2730;51.512;7.504;2023-02-19T06:28:38;28.08;;;15.15;;
5414;SDS011;2730;51.512;7.504;2023-02-19T06:31:06;23.45;;;13.85;;
5414;SDS011;2730;51.512;7.504;2023-02-19T06:33:34;35.63;;;14.10;;
5414;SDS011;2730;51.512;7.504;2023-02-19T06:36:06;29.15;;;14.45;;
5414;SDS011;2730;51.512;7.504;2023-02-19T06:38:35;33.30;;;13.60;;
5414;SDS011;2730;51.512;7.504;2023-02-19T06:41:03;25.30;;;13.60;;
5414;SDS011;2730;51.512;7.504;2023-02-19T06:43:31;25.65;;;13.07;;
5414;SDS011;2730;51.512;7.504;2023-02-19T06:45:58;27.17;;;14.48;;
5414;SDS011;2730;51.512;7.504;2023-02-19T06:48:25;27.10;;;13.88;;
5414;SDS011;2730;51.512;7.504;2023-02-19T06:50:52;34.05;;;13.93;;
5414;SDS011;2730;51.512;7.504;2023-02-19T06:53:21;21.42;;;12.98;;
5414;SDS011;2730;51.512;7.504;2023-02-19T06:55:54;24.98;;;13.52;;
5414;SDS011;2730;51.512;7.504;2023-02-19T06:58:21;26.60;;;13.60;;
5414;SDS011;2730;51.512;7.504;2023-02-19T07:00:48;33.85;;;15.60;;
5414;SDS011;2730;51.512;7.504;2023-02-19T07:03:14;32.35;;;14.18;;
5414;SDS011;2730;51.512;7.504;2023-02-19T07:05:41;33.95;;;13.52;;
5414;SDS011;2730;51.512;7.504;2023-02-19T07:08:08;26.60;;;13.48;;
5414;SDS011;2730;51.512;7.504;2023-02-19T07:10:36;27.40;;;13.88;;
5414;SDS011;2730;51.512;7.504;2023-02-19T07:13:03;29.17;;;13.43;;
5414;SDS011;2730;51.512;7.504;2023-02-19T07:15:30;29.98;;;14.90;;
5414;SDS011;2730;51.512;7.504;2023-02-19T07:17:57;28.23;;;13.80;;
5414;SDS011;2730;51.512;7.504;2023-02-19T07:20:24;29.65;;;14.45;;
5414;SDS011;2730;51.512;7.504;2023-02-19T07:22:51;38.28;;;14.88;;
5414;SDS011;2730;51.512;7.504;2023-02-19T07:25:18;27.60;;;13.80;;
5414;SDS011;2730;51.512;7.504;2023-02-19T07:27:47;25.45;;;12.30;;
5414;SDS011;2730;51.512;7.504;2023-02-19T07:30:14;27.83;;;14.07;;
5414;SDS011;2730;51.512;7.504;2023-02-19T07:32:40;29.00;;;14.35;;
5414;SDS011;2730;51.512;7.504;2023-02-19T07:35:09;28.58;;;13.10;;
5414;SDS011;2730;51.512;7.504;2023-02-19T07:37:36;21.73;;;12.25;;
5414;SDS011;2730;51.512;7.504;2023-02-19T07:40:03;28.83;;;13.45;;
5414;SDS011;2730;51.512;7.504;2023-02-19T07:42:31;26.60;;;13.02;;
5414;SDS011;2730;51.512;7.504;2023-02-19T07:44:59;26.05;;;12.68;;
5414;SDS011;2730;51.512;7.504;2023-02-19T07:47:26;22.63;;;11.70;;
5414;SDS011;2730;51.512;7.504;2023-02-19T07:49:53;25.42;;;12.73;;
5414;SDS011;2730;51.512;7.504;2023-02-19T07:52:20;27.67;;;11.90;;
5414;SDS011;2730;51.512;7.504;2023-02-19T07:54:47;24.73;;;11.38;;
5414;SDS011;2730;51.512;7.504;2023-02-19T07:57:13;23.45;;;11.20;;
5414;SDS011;2730;51.512;7.504;2023-02-19T07:59:40;25.50;;;11.68;;
5414;SDS011;2730;51.512;7.504;2023-02-19T08:02:10;25.80;;;13.38;;
5414;SDS011;2730;51.512;7.504;2023-02-19T08:04:58;28.52;;;12.30;;
5414;SDS011;2730;51.512;7.504;2023-02-19T08:07:29;22.35;;;12.82;;
5414;SDS011;2730;51.512;7.504;2023-02-19T08:09:56;25.40;;;12.40;;
5414;SDS011;2730;51.512;7.504;2023-02-19T08:12:53;31.25;;;13.27;;
5414;SDS011;2730;51.512;7.504;2023-02-19T08:15:38;24.23;;;12.68;;
5414;SDS011;2730;51.512;7.504;2023-02-19T08:18:06;25.10;;;12.80;;
5414;SDS011;2730;51.512;7.504;2023-02-19T08:20:33;29.50;;;13.35;;
5414;SDS011;2730;51.512;7.504;2023-02-19T08:23:00;21.70;;;12.90;;
5414;SDS011;2730;51.512;7.504;2023-02-19T08:25:27;23.30;;;13.05;;
5414;SDS011;2730;51.512;7.504;2023-02-19T08:27:54;26.60;;;13.57;;
5414;SDS011;2730;51.512;7.504;2023-02-19T08:30:21;30.83;;;14.02;;
5414;SDS011;2730;51.512;7.504;2023-02-19T08:32:48;27.52;;;15.32;;
5414;SDS011;2730;51.512;7.504;2023-02-19T08:35:16;23.05;;;12.88;;
5414;SDS011;2730;51.512;7.504;2023-02-19T08:37:43;24.23;;;13.18;;
5414;SDS011;2730;51.512;7.504;2023-02-19T08:40:10;25.27;;;13.20;;
5414;SDS011;2730;51.512;7.504;2023-02-19T08:42:37;23.13;;;12.80;;
5414;SDS011;2730;51.512;7.504;2023-02-19T08:45:04;27.40;;;11.60;;
5414;SDS011;2730;51.512;7.504;2023-02-19T08:47:33;27.85;;;12.25;;
5414;SDS011;2730;51.512;7.504;2023-02-19T08:50:00;22.85;;;11.65;;
5414;SDS011;2730;51.512;7.504;2023-02-19T08:52:30;18.40;;;9.93;;
5414;SDS011;2730;51.512;7.504;2023-02-19T08:54:57;17.35;;;8.82;;
5414;SDS011;2730;51.512;7.504;2023-02-19T08:57:24;19.10;;;10.20;;
5414;SDS011;2730;51.512;7.504;2023-02-19T08:59:53;19.73;;;9.05;;
5414;SDS011;2730;51.512;7.504;2023-02-19T09:02:20;25.88;;;9.70;;
5414;SDS011;2730;51.512;7.504;2023-02-19T09:04:47;20.70;;;9.20;;
5414;SDS011;2730;51.512;7.504;2023-02-19T09:07:13;17.30;;;8.80;;
5414;SDS011;2730;51.512;7.504;2023-02-19T09:09:42;26.27;;;10.25;;
5414;SDS011;2730;51.512;7.504;2023-02-19T09:12:09;18.80;;;10.10;;
5414;SDS011;2730;51.512;7.504;2023-02-19T09:14:37;12.98;;;8.43;;
5414;SDS011;2730;51.512;7.504;2023-02-19T09:17:05;15.90;;;8.55;;
5414;SDS011;2730;51.512;7.504;2023-02-19T09:19:33;27.65;;;9.80;;
5414;SDS011;2730;51.512;7.504;2023-02-19T09:22:00;19.83;;;10.75;;
5414;SDS011;2730;51.512;7.504;2023-02-19T09:24:27;22.88;;;9.05;;
5414;SDS011;2730;51.512;7.504;2023-02-19T09:26:55;20.75;;;10.63;;
5414;SDS011;2730;51.512;7.504;2023-02-19T09:29:23;19.20;;;8.65;;
5414;SDS011;2730;51.512;7.504;2023-02-19T09:31:54;28.15;;;10.98;;
5414;SDS011;2730;51.512;7.504;2023-02-19T09:34:21;23.17;;;10.55;;
5414;SDS011;2730;51.512;7.504;2023-02-19T09:36:48;20.95;;;9.50;;
5414;SDS011;2730;51.512;7.504;2023-02-19T09:39:15;19.92;;;9.57;;
5414;SDS011;2730;51.512;7.504;2023-02-19T09:41:42;14.35;;;8.73;;
5414;SDS011;2730;51.512;7.504;2023-02-19T09:44:13;18.48;;;10.05;;
5414;SDS011;2730;51.512;7.504;2023-02-19T09:46:46;19.10;;;10.82;;
5414;SDS011;2730;51.512;7.504;2023-02-19T09:49:16;24.15;;;10.82;;
5414;SDS011;2730;51.512;7.504;2023-02-19T09:51:46;18.00;;;10.75;;
5414;SDS011;2730;51.512;7.504;2023-02-19T09:54:17;22.98;;;11.35;;
5414;SDS011;2730;51.512;7.504;2023-02-19T09:56:47;22.85;;;11.40;;
5414;SDS011;2730;51.512;7.504;2023-02-19T09:59:17;22.42;;;10.63;;
5414;SDS011;2730;51.512;7.504;2023-02-19T10:01:45;21.60;;;12.07;;
5414;SDS011;2730;51.512;7.504;2023-02-19T10:04:14;20.02;;;11.50;;
5414;SDS011;2730;51.512;7.504;2023-02-19T10:06:40;22.13;;;10.50;;
5414;SDS011;2730;51.512;7.504;2023-02-19T10:09:13;29.48;;;11.70;;
5414;SDS011;2730;51.512;7.504;2023-02-19T10:11:46;19.02;;;10.30;;
5414;SDS011;2730;51.512;7.504;2023-02-19T10:14:15;31.55;;;10.82;;
5414;SDS011;2730;51.512;7.504;2023-02-19T10:16:46;18.25;;;9.02;;
5414;SDS011;2730;51.512;7.504;2023-02-19T10:19:15;15.50;;;9.68;;
5414;SDS011;2730;51.512;7.504;2023-02-19T10:21:42;12.57;;;8.38;;
5414;SDS011;2730;51.512;7.504;2023-02-19T10:24:11;15.90;;;7.88;;
5414;SDS011;2730;51.512;7.504;2023-02-19T10:26:41;18.50;;;8.77;;
5414;SDS011;2730;51.512;7.504;2023-02-19T10:29:08;20.42;;;10.43;;
5414;SDS011;2730;51.512;7.504;2023-02-19T10:31:37;15.15;;;9.30;;
5414;SDS011;2730;51.512;7.504;2023-02-19T10:34:04;20.83;;;9.00;;
5414;SDS011;2730;51.512;7.504;2023-02-19T10:36:42;20.40;;;9.30;;
5414;SDS011;2730;51.512;7.504;2023-02-19T10:39:25;14.52;;;8.80;;
5414;SDS011;2730;51.512;7.504;2023-02-19T10:42:01;17.83;;;8.93;;
5414;SDS011;2730;51.512;7.504;2023-02-19T10:44:37;18.05;;;8.65;;
5414;SDS011;2730;51.512;7.504;2023-02-19T10:47:10;19.00;;;9.02;;
5414;SDS011;2730;51.512;7.504;2023-02-19T10:49:42;14.48;;;8.70;;
5414;SDS011;2730;51.512;7.504;2023-02-19T10:52:11;17.58;;;9.70;;
5414;SDS011;2730;51.512;7.504;2023-02-19T10:54:41;16.83;;;9.13;;
5414;SDS011;2730;51.512;7.504;2023-02-19T10:57:21;20.63;;;8.93;;
5414;SDS011;2730;51.512;7.504;2023-02-19T10:59:55;12.10;;;7.57;;
5414;SDS011;2730;51.512;7.504;2023-02-19T11:02:26;11.27;;;7.25;;
5414;SDS011;2730;51.512;7.504;2023-02-19T11:05:01;12.18;;;7.47;;
5414;SDS011;2730;51.512;7.504;2023-02-19T11:07:42;12.63;;;6.95;;
5414;SDS011;2730;51.512;7.504;2023-02-19T11:10:18;8.73;;;6.05;;
5414;SDS011;2730;51.512;7.504;2023-02-19T11:12:52;11.32;;;8.02;;
5414;SDS011;2730;51.512;7.504;2023-02-19T11:15:21;18.42;;;9.25;;
5414;SDS011;2730;51.512;7.504;2023-02-19T11:17:55;12.43;;;7.40;;
5414;SDS011;2730;51.512;7.504;2023-02-19T11:20:25;14.93;;;8.13;;
5414;SDS011;2730;51.512;7.504;2023-02-19T11:22:55;22.85;;;8.68;;
5414;SDS011;2730;51.512;7.504;2023-02-19T11:25:25;20.67;;;9.73;;
5414;SDS011;2730;51.512;7.504;2023-02-19T11:27:54;16.17;;;8.90;;
5414;SDS011;2730;51.512;7.504;2023-02-19T11:30:30;15.27;;;8.00;;
5414;SDS011;2730;51.512;7.504;2023-02-19T11:33:12;7.97;;;5.88;;
5414;SDS011;2730;51.512;7.504;2023-02-19T11:35:53;10.48;;;6.72;;
5414;SDS011;2730;51.512;7.504;2023-02-19T11:38:41;15.10;;;8.02;;
5414;SDS011;2730;51.512;7.504;2023-02-19T11:41:09;13.70;;;8.75;;
5414;SDS011;2730;51.512;7.504;2023-02-19T11:43:47;6.57;;;4.00;;
5414;SDS011;2730;51.512;7.504;2023-02-19T11:46:28;4.60;;;3.90;;
5414;SDS011;2730;51.512;7.504;2023-02-19T11:49:06;4.30;;;3.05;;
5414;SDS011;2730;51.512;7.504;2023-02-19T11:51:48;3.17;;;2.05;;
5414;SDS011;2730;51.512;7.504;2023-02-19T11:54:43;3.03;;;2.17;;
5414;SDS011;2730;51.512;7.504;2023-02-19T11:57:17;2.83;;;2.15;;
5414;SDS011;2730;51.512;7.504;2023-02-19T12:00:18;4.78;;;1.90;;
5414;SDS011;2730;51.512;7.504;2023-02-19T12:05:50;2.55;;;2.13;;
5414;SDS011;2730;51.512;7.504;2023-02-19T12:08:33;2.55;;;2.20;;
5414;SDS011;2730;51.512;7.504;2023-02-19T12:11:20;3.20;;;1.77;;
5414;SDS011;2730;51.512;7.504;2023-02-19T12:14:17;1.95;;;1.85;;
5414;SDS011;2730;51.512;7.504;2023-02-19T12:17:09;2.50;;;1.80;;
5414;SDS011;2730;51.512;7.504;2023-02-19T12:19:56;2.42;;;2.20;;
5414;SDS011;2730;51.512;7.504;2023-02-19T12:22:35;2.30;;;1.90;;
5414;SDS011;2730;51.512;7.504;2023-02-19T12:28:25;1.95;;;1.77;;
5414;SDS011;2730;51.512;7.504;2023-02-19T12:34:16;3.03;;;2.00;;
5414;SDS011;2730;51.512;7.504;2023-02-19T12:36:57;2.97;;;2.70;;
5414;SDS011;2730;51.512;7.504;2023-02-19T12:39:37;3.20;;;2.25;;
5414;SDS011;2730;51.512;7.504;2023-02-19T12:42:10;2.05;;;1.95;;
5414;SDS011;2730;51.512;7.504;2023-02-19T12:44:47;2.30;;;2.10;;
5414;SDS011;2730;51.512;7.504;2023-02-19T12:47:22;2.92;;;2.63;;
5414;SDS011;2730;51.512;7.504;2023-02-19T12:49:54;2.40;;;2.20;;
5414;SDS011;2730;51.512;7.504;2023-02-19T12:52:30;2.47;;;2.05;;
5414;SDS011;2730;51.512;7.504;2023-02-19T12:55:12;2.40;;;1.90;;
5414;SDS011;2730;51.512;7.504;2023-02-19T12:57:46;2.90;;;1.40;;
5414;SDS011;2730;51.512;7.504;2023-02-19T13:00:18;1.95;;;1.73;;
5414;SDS011;2730;51.512;7.504;2023-02-19T13:02:55;1.50;;;1.40;;
5414;SDS011;2730;51.512;7.504;2023-02-19T13:05:31;1.98;;;1.80;;
5414;SDS011;2730;51.512;7.504;2023-02-19T13:08:06;2.45;;;2.20;;
5414;SDS011;2730;51.512;7.504;2023-02-19T13:10:39;3.38;;;2.70;;
5414;SDS011;2730;51.512;7.504;2023-02-19T13:13:11;3.67;;;2.70;;
5414;SDS011;2730;51.512;7.504;2023-02-19T13:15:45;6.60;;;3.10;;
5414;SDS011;2730;51.512;7.504;2023-02-19T13:18:16;5.07;;;3.60;;
5414;SDS011;2730;51.512;7.504;2023-02-19T13:20:44;7.50;;;4.45;;
5414;SDS011;2730;51.512;7.504;2023-02-19T13:23:14;6.50;;;3.80;;
5414;SDS011;2730;51.512;7.504;2023-02-19T13:26:10;6.82;;;4.53;;
5414;SDS011;2730;51.512;7.504;2023-02-19T13:28:50;10.63;;;6.47;;
5414;SDS011;2730;51.512;7.504;2023-02-19T13:31:29;9.70;;;5.10;;
5414;SDS011;2730;51.512;7.504;2023-02-19T13:34:12;11.32;;;5.53;;
5414;SDS011;2730;51.512;7.504;2023-02-19T13:36:44;9.48;;;5.60;;
5414;SDS011;2730;51.512;7.504;2023-02-19T13:39:13;13.95;;;7.70;;
5414;SDS011;2730;51.512;7.504;2023-02-19T13:41:48;12.65;;;6.90;;
5414;SDS011;2730;51.512;7.504;2023-02-19T13:44:16;15.75;;;7.30;;
5414;SDS011;2730;51.512;7.504;2023-02-19T13:46:46;12.82;;;6.70;;
5414;SDS011;2730;51.512;7.504;2023-02-19T13:52:32;10.32;;;5.72;;
5414;SDS011;2730;51.512;7.504;2023-02-19T14:01:05;16.42;;;9.18;;
5414;SDS011;2730;51.512;7.504;2023-02-19T14:03:43;22.83;;;10.90;;
5414;SDS011;2730;51.512;7.504;2023-02-19T14:06:14;22.13;;;11.10;;
5414;SDS011;2730;51.512;7.504;2023-02-19T14:08:45;25.70;;;12.05;;
5414;SDS011;2730;51.512;7.504;2023-02-19T14:11:14;21.10;;;10.75;;
5414;SDS011;2730;51.512;7.504;2023-02-19T14:13:56;20.23;;;10.52;;
5414;SDS011;2730;51.512;7.504;2023-02-19T14:16:36;21.80;;;10.60;;
5414;SDS011;2730;51.512;7.504;2023-02-19T14:19:21;23.52;;;11.10;;
5414;SDS011;2730;51.512;7.504;2023-02-19T14:25:25;16.40;;;9.07;;
5414;SDS011;2730;51.512;7.504;2023-02-19T14:28:13;19.40;;;9.20;;
5414;SDS011;2730;51.512;7.504;2023-02-19T14:30:45;15.88;;;7.85;;
5414;SDS011;2730;51.512;7.504;2023-02-19T14:33:14;17.25;;;7.63;;
5414;SDS011;2730;51.512;7.504;2023-02-19T14:35:44;16.23;;;8.43;;
5414;SDS011;2730;51.512;7.504;2023-02-19T14:38:15;16.92;;;8.10;;
5414;SDS011;2730;51.512;7.504;2023-02-19T14:40:46;19.08;;;9.15;;
5414;SDS011;2730;51.512;7.504;2023-02-19T14:43:14;16.80;;;7.32;;
5414;SDS011;2730;51.512;7.504;2023-02-19T14:45:44;16.00;;;8.68;;
5414;SDS011;2730;51.512;7.504;2023-02-19T14:48:15;16.75;;;8.68;;
5414;SDS011;2730;51.512;7.504;2023-02-19T14:50:47;15.23;;;7.68;;
5414;SDS011;2730;51.512;7.504;2023-02-19T14:53:18;10.40;;;6.35;;
5414;SDS011;2730;51.512;7.504;2023-02-19T14:55:47;11.52;;;6.28;;
5414;SDS011;2730;51.512;7.504;2023-02-19T14:58:16;10.80;;;7.13;;
5414;SDS011;2730;51.512;7.504;2023-02-19T15:00:47;11.68;;;5.75;;
5414;SDS011;2730;51.512;7.504;2023-02-19T15:03:24;13.57;;;6.32;;
5414;SDS011;2730;51.512;7.504;2023-02-19T15:05:59;9.60;;;6.30;;
5414;SDS011;2730;51.512;7.504;2023-02-19T15:08:35;9.52;;;5.20;;
5414;SDS011;2730;51.512;7.504;2023-02-19T15:11:07;8.95;;;5.55;;
5414;SDS011;2730;51.512;7.504;2023-02-19T15:13:36;8.93;;;5.75;;
5414;SDS011;2730;51.512;7.504;2023-02-19T15:16:09;9.10;;;6.80;;
5414;SDS011;2730;51.512;7.504;2023-02-19T15:18:42;7.53;;;5.30;;
5414;SDS011;2730;51.512;7.504;2023-02-19T15:21:15;11.82;;;7.43;;
5414;SDS011;2730;51.512;7.504;2023-02-19T15:23:47;10.88;;;6.65;;
5414;SDS011;2730;51.512;7.504;2023-02-19T15:26:16;7.88;;;5.72;;
5414;SDS011;2730;51.512;7.504;2023-02-19T15:28:46;9.00;;;6.07;;
5414;SDS011;2730;51.512;7.504;2023-02-19T15:31:23;11.30;;;7.32;;
5414;SDS011;2730;51.512;7.504;2023-02-19T15:33:50;13.38;;;6.82;;
5414;SDS011;2730;51.512;7.504;2023-02-19T15:36:21;8.73;;;6.20;;
5414;SDS011;2730;51.512;7.504;2023-02-19T15:38:51;15.30;;;7.68;;
5414;SDS011;2730;51.512;7.504;2023-02-19T15:41:20;14.02;;;7.10;;
5414;SDS011;2730;51.512;7.504;2023-02-19T15:43:49;13.88;;;8.27;;